sensor_id;sensor_type;location;lat;lon;timestamp;temperature;humidity
9965;DHT22;5023;53.554;9.964;2023-02-19T00:01:10;5.70;99.90
9965;DHT22;5023;53.554;9.964;2023-02-19T00:06:14;5.70;99.90
9965;DHT22;5023;53.554;9.964;2023-02-19T00:11:18;5.70;99.90
9965;DHT22;5023;53.554;9.964;2023-02-19T00:16:22;5.70;99.90
9965;DHT22;5023;53.554;9.964;2023-02-19T00:21:26;5.70;99.90
9965;DHT22;5023;53.554;9.964;2023-02-19T00:26:29;5.70;99.90
9965;DHT22;5023;53.554;9.964;2023-02-19T00:31:33;5.70;99.90
9965;DHT22;5023;53.554;9.964;2023-02-19T00:36:40;5.70;99.90
9965;DHT22;5023;53.554;9.964;2023-02-19T00:41:45;5.80;99.90
9965;DHT22;5023;53.554;9.964;2023-02-19T00:46:47;5.80;99.90
9965;DHT22;5023;53.554;9.964;2023-02-19T00:51:52;5.80;99.90
9965;DHT22;5023;53.554;9.964;2023-02-19T00:56:54;5.70;99.90
9965;DHT22;5023;53.554;9.964;2023-02-19T01:01:56;5.80;99.90
9965;DHT22;5023;53.554;9.964;2023-02-19T01:07:00;5.80;99.90
9965;DHT22;5023;53.554;9.964;2023-02-19T01:12:02;5.70;99.90
9965;DHT22;5023;53.554;9.964;2023-02-19T01:17:04;5.60;99.90
9965;DHT22;5023;53.554;9.964;2023-02-19T01:22:11;5.60;99.90
9965;DHT22;5023;53.554;9.964;2023-02-19T01:27:14;5.50;99.90
9965;DHT22;5023;53.554;9.964;2023-02-19T01:32:16;5.50;99.90
9965;DHT22;5023;53.554;9.964;2023-02-19T01:37:19;5.50;99.90
9965;DHT22;5023;53.554;9.964;2023-02-19T01:42:21;5.50;99.90
9965;DHT22;5023;53.554;9.964;2023-02-19T01:47:26;5.60;99.90
9965;DHT22;5023;53.554;9.964;2023-02-19T01:52:33;5.50;99.90
9965;DHT22;5023;53.554;9.964;2023-02-19T01:57:40;5.40;99.90
9965;DHT22;5023;53.554;9.964;2023-02-19T02:02:47;5.20;99.90
9965;DHT22;5023;53.554;9.964;2023-02-19T02:07:51;5.20;99.90
9965;DHT22;5023;53.554;9.964;2023-02-19T02:13:11;5.10;99.90
9965;DHT22;5023;53.554;9.964;2023-02-19T02:18:26;5.00;99.90
9965;DHT22;5023;53.554;9.964;2023-02-19T02:23:39;4.90;99.90
9965;DHT22;5023;53.554;9.964;2023-02-19T02:34:14;4.80;99.90
9965;DHT22;5023;53.554;9.964;2023-02-19T02:39:21;4.70;99.90
9965;DHT22;5023;53.554;9.964;2023-02-19T02:44:33;4.70;99.90
9965;DHT22;5023;53.554;9.964;2023-02-19T02:49:36;4.60;99.90
9965;DHT22;5023;53.554;9.964;2023-02-19T02:54:59;4.50;99.90
9965;DHT22;5023;53.554;9.964;2023-02-19T03:00:07;4.40;99.90
9965;DHT22;5023;53.554;9.964;2023-02-19T03:05:14;4.40;99.90
9965;DHT22;5023;53.554;9.964;2023-02-19T03:10:38;4.50;99.90
9965;DHT22;5023;53.554;9.964;2023-02-19T03:15:45;4.50;99.90
9965;DHT22;5023;53.554;9.964;2023-02-19T03:21:18;4.50;99.90
9965;DHT22;5023;53.554;9.964;2023-02-19T03:26:22;4.50;99.90
9965;DHT22;5023;53.554;9.964;2023-02-19T03:31:29;4.60;99.90
9965;DHT22;5023;53.554;9.964;2023-02-19T03:36:38;4.50;99.90
9965;DHT22;5023;53.554;9.964;2023-02-19T03:41:45;4.50;99.90
9965;DHT22;5023;53.554;9.964;2023-02-19T03:46:53;4.50;99.90
9965;DHT22;5023;53.554;9.964;2023-02-19T03:52:01;4.50;99.90
9965;DHT22;5023;53.554;9.964;2023-02-19T03:57:13;4.50;99.90
9965;DHT22;5023;53.554;9.964;2023-02-19T04:02:26;4.60;99.90
9965;DHT22;5023;53.554;9.964;2023-02-19T04:07:33;4.50;99.90
9965;DHT22;5023;53.554;9.964;2023-02-19T04:12:38;4.40;99.90
9965;DHT22;5023;53.554;9.964;2023-02-19T04:17:45;4.40;99.90
9965;DHT22;5023;53.554;9.964;2023-02-19T04:22:50;4.40;99.90
9965;DHT22;5023;53.554;9.964;2023-02-19T04:27:53;4.50;99.90
9965;DHT22;5023;53.554;9.964;2023-02-19T04:32:55;4.50;99.90
9965;DHT22;5023;53.554;9.964;2023-02-19T04:37:58;4.50;99.90
9965;DHT22;5023;53.554;9.964;2023-02-19T04:43:01;4.60;99.90
9965;DHT22;5023;53.554;9.964;2023-02-19T04:48:03;4.60;99.90
9965;DHT22;5023;53.554;9.964;2023-02-19T04:53:06;4.70;99.90
9965;DHT22;5023;53.554;9.964;2023-02-19T04:58:08;4.70;99.90
9965;DHT22;5023;53.554;9.964;2023-02-19T05:03:11;4.70;99.90
9965;DHT22;5023;53.554;9.964;2023-02-19T05:08:14;4.70;99.90
9965;DHT22;5023;53.554;9.964;2023-02-19T05:13:16;4.70;99.90
9965;DHT22;5023;53.554;9.964;2023-02-19T05:18:18;4.70;99.90
9965;DHT22;5023;53.554;9.964;2023-02-19T05:23:22;4.70;99.90
9965;DHT22;5023;53.554;9.964;2023-02-19T05:28:24;4.60;99.90
9965;DHT22;5023;53.554;9.964;2023-02-19T05:33:28;4.60;99.90
9965;DHT22;5023;53.554;9.964;2023-02-19T05:38:31;4.50;99.90
9965;DHT22;5023;53.554;9.964;2023-02-19T05:43:33;4.60;99.90
9965;DHT22;5023;53.554;9.964;2023-02-19T05:48:36;4.70;99.90
9965;DHT22;5023;53.554;9.964;2023-02-19T05:53:40;4.70;99.90
9965;DHT22;5023;53.554;9.964;2023-02-19T05:58:42;4.70;99.90
9965;DHT22;5023;53.554;9.964;2023-02-19T06:03:44;4.60;99.90
9965;DHT22;5023;53.554;9.964;2023-02-19T06:08:49;4.60;99.90
9965;DHT22;5023;53.554;9.964;2023-02-19T06:13:51;4.60;99.90
9965;DHT22;5023;53.554;9.964;2023-02-19T06:18:53;4.60;99.90
9965;DHT22;5023;53.554;9.964;2023-02-19T06:24:03;4.60;99.90
9965;DHT22;5023;53.554;9.964;2023-02-19T06:29:05;4.50;99.90
9965;DHT22;5023;53.554;9.964;2023-02-19T06:34:09;4.50;99.90
9965;DHT22;5023;53.554;9.964;2023-02-19T06:39:12;4.50;99.90
9965;DHT22;5023;53.554;9.964;2023-02-19T06:44:14;4.50;99.90
9965;DHT22;5023;53.554;9.964;2023-02-19T06:49:16;4.40;99.90
9965;DHT22;5023;53.554;9.964;2023-02-19T06:54:20;4.50;99.90
9965;DHT22;5023;53.554;9.964;2023-02-19T06:59:23;4.50;99.90
9965;DHT22;5023;53.554;9.964;2023-02-19T07:04:25;4.50;99.90
9965;DHT22;5023;53.554;9.964;2023-02-19T07:09:29;4.50;99.90
9965;DHT22;5023;53.554;9.964;2023-02-19T07:14:31;4.50;99.90
9965;DHT22;5023;53.554;9.964;2023-02-19T07:19:33;4.40;99.90
9965;DHT22;5023;53.554;9.964;2023-02-19T07:24:36;4.40;99.90
9965;DHT22;5023;53.554;9.964;2023-02-19T07:29:38;4.40;99.90
9965;DHT22;5023;53.554;9.964;2023-02-19T07:34:40;4.40;99.90
9965;DHT22;5023;53.554;9.964;2023-02-19T07:39:43;4.30;99.90
9965;DHT22;5023;53.554;9.964;2023-02-19T07:44:45;4.40;99.90
9965;DHT22;5023;53.554;9.964;2023-02-19T07:49:48;4.50;99.90
9965;DHT22;5023;53.554;9.964;2023-02-19T07:54:51;4.60;99.90
9965;DHT22;5023;53.554;9.964;2023-02-19T07:59:53;4.50;99.90
9965;DHT22;5023;53.554;9.964;2023-02-19T08:04:56;4.60;99.90
9965;DHT22;5023;53.554;9.964;2023-02-19T08:09:59;4.50;99.90
9965;DHT22;5023;53.554;9.964;2023-02-19T08:15:15;4.50;99.90
9965;DHT22;5023;53.554;9.964;2023-02-19T08:20:17;4.50;99.90
9965;DHT22;5023;53.554;9.964;2023-02-19T08:25:21;4.60;99.90
9965;DHT22;5023;53.554;9.964;2023-02-19T08:30:23;4.60;99.90
9965;DHT22;5023;53.554;9.964;2023-02-19T08:35:25;4.70;99.90
9965;DHT22;5023;53.554;9.964;2023-02-19T08:40:28;4.80;99.90
9965;DHT22;5023;53.554;9.964;2023-02-19T08:45:31;4.80;99.90
9965;DHT22;5023;53.554;9.964;2023-02-19T08:50:33;4.90;99.90
9965;DHT22;5023;53.554;9.964;2023-02-19T08:55:37;5.00;99.90
9965;DHT22;5023;53.554;9.964;2023-02-19T09:00:39;5.10;99.90
9965;DHT22;5023;53.554;9.964;2023-02-19T09:05:42;5.10;99.90
9965;DHT22;5023;53.554;9.964;2023-02-19T09:10:57;5.20;99.90
9965;DHT22;5023;53.554;9.964;2023-02-19T09:16:02;5.40;99.90
9965;DHT22;5023;53.554;9.964;2023-02-19T09:21:05;5.50;99.90
9965;DHT22;5023;53.554;9.964;2023-02-19T09:26:09;5.60;99.90
9965;DHT22;5023;53.554;9.964;2023-02-19T09:31:14;5.70;99.90
9965;DHT22;5023;53.554;9.964;2023-02-19T09:36:17;5.80;99.90
9965;DHT22;5023;53.554;9.964;2023-02-19T09:41:24;5.90;99.90
9965;DHT22;5023;53.554;9.964;2023-02-19T09:46:30;6.00;99.90
9965;DHT22;5023;53.554;9.964;2023-02-19T09:51:35;6.00;99.90
9965;DHT22;5023;53.554;9.964;2023-02-19T09:56:39;6.10;99.90
9965;DHT22;5023;53.554;9.964;2023-02-19T10:01:43;6.20;99.90
9965;DHT22;5023;53.554;9.964;2023-02-19T10:06:45;6.30;99.90
9965;DHT22;5023;53.554;9.964;2023-02-19T10:11:51;6.40;99.90
9965;DHT22;5023;53.554;9.964;2023-02-19T10:16:56;6.50;99.90
9965;DHT22;5023;53.554;9.964;2023-02-19T10:22:02;6.70;99.90
9965;DHT22;5023;53.554;9.964;2023-02-19T10:27:10;6.70;99.90
9965;DHT22;5023;53.554;9.964;2023-02-19T10:32:14;6.80;99.90
9965;DHT22;5023;53.554;9.964;2023-02-19T10:37:19;6.80;99.90
9965;DHT22;5023;53.554;9.964;2023-02-19T10:42:22;6.90;99.90
9965;DHT22;5023;53.554;9.964;2023-02-19T10:47:27;6.90;99.90
9965;DHT22;5023;53.554;9.964;2023-02-19T10:52:32;7.00;99.90
9965;DHT22;5023;53.554;9.964;2023-02-19T10:57:38;7.00;99.90
9965;DHT22;5023;53.554;9.964;2023-02-19T11:02:40;7.10;99.90
9965;DHT22;5023;53.554;9.964;2023-02-19T11:07:45;7.30;99.90
9965;DHT22;5023;53.554;9.964;2023-02-19T11:12:50;7.30;99.90
9965;DHT22;5023;53.554;9.964;2023-02-19T11:17:57;7.30;99.90
9965;DHT22;5023;53.554;9.964;2023-02-19T11:23:05;7.50;99.90
9965;DHT22;5023;53.554;9.964;2023-02-19T11:28:24;7.60;99.90
9965;DHT22;5023;53.554;9.964;2023-02-19T11:33:28;7.60;99.90
9965;DHT22;5023;53.554;9.964;2023-02-19T11:38:31;7.60;99.90
9965;DHT22;5023;53.554;9.964;2023-02-19T11:43:57;7.70;99.90
9965;DHT22;5023;53.554;9.964;2023-02-19T11:49:11;7.60;99.90
9965;DHT22;5023;53.554;9.964;2023-02-19T11:54:23;7.50;99.90
9965;DHT22;5023;53.554;9.964;2023-02-19T11:59:35;7.50;99.90
9965;DHT22;5023;53.554;9.964;2023-02-19T12:05:08;7.60;99.90
9965;DHT22;5023;53.554;9.964;2023-02-19T12:10:20;7.80;99.90
9965;DHT22;5023;53.554;9.964;2023-02-19T12:21:02;8.10;99.90
9965;DHT22;5023;53.554;9.964;2023-02-19T12:26:15;8.40;99.90
9965;DHT22;5023;53.554;9.964;2023-02-19T12:36:58;8.60;99.90
9965;DHT22;5023;53.554;9.964;2023-02-19T12:42:10;8.70;99.90
9965;DHT22;5023;53.554;9.964;2023-02-19T12:47:19;8.70;99.90
9965;DHT22;5023;53.554;9.964;2023-02-19T12:52:25;8.80;99.90
9965;DHT22;5023;53.554;9.964;2023-02-19T12:57:31;8.80;99.90
9965;DHT22;5023;53.554;9.964;2023-02-19T13:02:40;9.00;99.90
9965;DHT22;5023;53.554;9.964;2023-02-19T13:07:51;9.20;99.90
9965;DHT22;5023;53.554;9.964;2023-02-19T13:12:54;9.20;99.90
9965;DHT22;5023;53.554;9.964;2023-02-19T13:18:03;9.30;99.90
9965;DHT22;5023;53.554;9.964;2023-02-19T13:23:08;9.30;99.90
9965;DHT22;5023;53.554;9.964;2023-02-19T13:28:45;9.40;99.90
9965;DHT22;5023;53.554;9.964;2023-02-19T13:34:00;9.30;99.90
9965;DHT22;5023;53.554;9.964;2023-02-19T13:39:04;9.20;99.90
9965;DHT22;5023;53.554;9.964;2023-02-19T13:44:19;9.10;99.90
9965;DHT22;5023;53.554;9.964;2023-02-19T13:49:44;8.90;99.90
9965;DHT22;5023;53.554;9.964;2023-02-19T13:54:49;8.80;99.90
9965;DHT22;5023;53.554;9.964;2023-02-19T13:59:52;8.70;99.90
9965;DHT22;5023;53.554;9.964;2023-02-19T14:04:58;8.60;99.90
9965;DHT22;5023;53.554;9.964;2023-02-19T14:10:01;8.60;99.90
9965;DHT22;5023;53.554;9.964;2023-02-19T14:15:41;8.60;99.90
9965;DHT22;5023;53.554;9.964;2023-02-19T14:20:45;8.50;99.90
9965;DHT22;5023;53.554;9.964;2023-02-19T14:25:50;8.60;99.90
9965;DHT22;5023;53.554;9.964;2023-02-19T14:30:55;8.60;99.90
9965;DHT22;5023;53.554;9.964;2023-02-19T14:36:04;8.60;99.90
9965;DHT22;5023;53.554;9.964;2023-02-19T14:41:07;8.60;99.90
9965;DHT22;5023;53.554;9.964;2023-02-19T14:46:16;8.60;99.90
9965;DHT22;5023;53.554;9.964;2023-02-19T14:51:29;8.50;99.90
9965;DHT22;5023;53.554;9.964;2023-02-19T14:56:33;8.50;99.90
9965;DHT22;5023;53.554;9.964;2023-02-19T15:01:36;8.40;99.90
9965;DHT22;5023;53.554;9.964;2023-02-19T15:06:40;8.40;99.90
9965;DHT22;5023;53.554;9.964;2023-02-19T15:11:43;8.30;99.90
9965;DHT22;5023;53.554;9.964;2023-02-19T15:16:46;8.20;99.90
9965;DHT22;5023;53.554;9.964;2023-02-19T15:21:50;8.20;99.90
9965;DHT22;5023;53.554;9.964;2023-02-19T15:26:53;8.20;99.90
9965;DHT22;5023;53.554;9.964;2023-02-19T15:31:59;8.10;99.90
9965;DHT22;5023;53.554;9.964;2023-02-19T15:37:05;8.10;99.90
9965;DHT22;5023;53.554;9.964;2023-02-19T15:42:14;7.90;99.90
9965;DHT22;5023;53.554;9.964;2023-02-19T15:47:23;8.00;99.90
9965;DHT22;5023;53.554;9.964;2023-02-19T15:52:33;8.00;99.90
9965;DHT22;5023;53.554;9.964;2023-02-19T15:57:41;7.90;99.90
9965;DHT22;5023;53.554;9.964;2023-02-19T16:02:44;7.90;99.90
9965;DHT22;5023;53.554;9.964;2023-02-19T16:08:05;7.90;99.90
9965;DHT22;5023;53.554;9.964;2023-02-19T16:13:11;7.80;99.90
9965;DHT22;5023;53.554;9.964;2023-02-19T16:18:13;7.80;99.90
9965;DHT22;5023;53.554;9.964;2023-02-19T16:23:17;7.80;99.90
9965;DHT22;5023;53.554;9.964;2023-02-19T16:28:25;7.60;99.90
9965;DHT22;5023;53.554;9.964;2023-02-19T16:33:36;7.60;99.90
9965;DHT22;5023;53.554;9.964;2023-02-19T16:39:07;7.50;99.90
9965;DHT22;5023;53.554;9.964;2023-02-19T16:44:29;7.50;99.90
9965;DHT22;5023;53.554;9.964;2023-02-19T16:49:32;7.40;99.90
9965;DHT22;5023;53.554;9.964;2023-02-19T16:54:36;7.30;99.90
9965;DHT22;5023;53.554;9.964;2023-02-19T16:59:44;7.30;99.90
9965;DHT22;5023;53.554;9.964;2023-02-19T17:04:48;7.20;99.90
9965;DHT22;5023;53.554;9.964;2023-02-19T17:09:57;7.10;99.90
9965;DHT22;5023;53.554;9.964;2023-02-19T17:14:59;7.10;99.90
9965;DHT22;5023;53.554;9.964;2023-02-19T17:20:17;7.00;99.90
9965;DHT22;5023;53.554;9.964;2023-02-19T17:25:23;7.00;99.90
9965;DHT22;5023;53.554;9.964;2023-02-19T17:30:27;6.90;99.90
9965;DHT22;5023;53.554;9.964;2023-02-19T17:35:31;6.90;99.90
9965;DHT22;5023;53.554;9.964;2023-02-19T17:40:39;6.90;99.90
9965;DHT22;5023;53.554;9.964;2023-02-19T17:45:42;6.80;99.90
9965;DHT22;5023;53.554;9.964;2023-02-19T17:50:46;6.90;99.90
9965;DHT22;5023;53.554;9.964;2023-02-19T17:55:51;6.80;99.90
9965;DHT22;5023;53.554;9.964;2023-02-19T18:00:53;6.80;99.90
9965;DHT22;5023;53.554;9.964;2023-02-19T18:05:56;6.90;99.90
9965;DHT22;5023;53.554;9.964;2023-02-19T18:11:00;6.90;99.90
9965;DHT22;5023;53.554;9.964;2023-02-19T18:16:05;6.80;99.90
9965;DHT22;5023;53.554;9.964;2023-02-19T18:21:08;6.80;99.90
9965;DHT22;5023;53.554;9.964;2023-02-19T18:26:11;6.80;99.90
9965;DHT22;5023;53.554;9.964;2023-02-19T18:31:14;6.80;99.90
9965;DHT22;5023;53.554;9.964;2023-02-19T18:36:16;6.70;99.90
9965;DHT22;5023;53.554;9.964;2023-02-19T18:41:23;6.70;99.90
9965;DHT22;5023;53.554;9.964;2023-02-19T18:46:25;6.70;99.90
9965;DHT22;5023;53.554;9.964;2023-02-19T18:51:27;6.70;99.90
9965;DHT22;5023;53.554;9.964;2023-02-19T18:56:39;6.60;99.90
9965;DHT22;5023;53.554;9.964;2023-02-19T19:01:42;6.70;99.90
9965;DHT22;5023;53.554;9.964;2023-02-19T19:06:44;6.60;99.90
9965;DHT22;5023;53.554;9.964;2023-02-19T19:11:48;6.60;99.90
9965;DHT22;5023;53.554;9.964;2023-02-19T19:16:50;6.60;99.90
9965;DHT22;5023;53.554;9.964;2023-02-19T19:21:53;6.50;99.90
9965;DHT22;5023;53.554;9.964;2023-02-19T19:26:57;6.40;99.90
9965;DHT22;5023;53.554;9.964;2023-02-19T19:31:59;6.30;99.90
9965;DHT22;5023;53.554;9.964;2023-02-19T19:37:05;6.30;99.90
9965;DHT22;5023;53.554;9.964;2023-02-19T19:42:09;6.20;99.90
9965;DHT22;5023;53.554;9.964;2023-02-19T19:47:12;6.10;99.90
9965;DHT22;5023;53.554;9.964;2023-02-19T19:52:14;6.10;99.90
9965;DHT22;5023;53.554;9.964;2023-02-19T19:57:19;6.10;99.90
9965;DHT22;5023;53.554;9.964;2023-02-19T20:02:32;6.00;99.90
9965;DHT22;5023;53.554;9.964;2023-02-19T20:07:34;5.90;99.90
9965;DHT22;5023;53.554;9.964;2023-02-19T20:12:38;5.90;99.90
9965;DHT22;5023;53.554;9.964;2023-02-19T20:17:40;5.80;99.90
9965;DHT22;5023;53.554;9.964;2023-02-19T20:22:44;5.80;99.90
9965;DHT22;5023;53.554;9.964;2023-02-19T20:27:49;5.80;99.90
9965;DHT22;5023;53.554;9.964;2023-02-19T20:32:52;5.70;99.90
9965;DHT22;5023;53.554;9.964;2023-02-19T20:37:54;5.60;99.90
9965;DHT22;5023;53.554;9.964;2023-02-19T20:43:00;5.60;99.90
9965;DHT22;5023;53.554;9.964;2023-02-19T20:48:03;5.60;99.90
9965;DHT22;5023;53.554;9.964;2023-02-19T20:53:05;5.60;99.90
9965;DHT22;5023;53.554;9.964;2023-02-19T20:58:08;5.50;99.90
9965;DHT22;5023;53.554;9.964;2023-02-19T21:03:10;5.50;99.90
9965;DHT22;5023;53.554;9.964;2023-02-19T21:08:12;5.50;99.90
9965;DHT22;5023;53.554;9.964;2023-02-19T21:13:18;5.50;99.90
9965;DHT22;5023;53.554;9.964;2023-02-19T21:18:20;5.40;99.90
9965;DHT22;5023;53.554;9.964;2023-02-19T21:23:22;5.40;99.90
9965;DHT22;5023;53.554;9.964;2023-02-19T21:28:25;5.40;99.90
9965;DHT22;5023;53.554;9.964;2023-02-19T21:33:27;5.40;99.90
9965;DHT22;5023;53.554;9.964;2023-02-19T21:38:29;5.40;99.90
9965;DHT22;5023;53.554;9.964;2023-02-19T21:43:34;5.50;99.90
9965;DHT22;5023;53.554;9.964;2023-02-19T21:48:36;5.40;99.90
9965;DHT22;5023;53.554;9.964;2023-02-19T21:53:38;5.40;99.90
9965;DHT22;5023;53.554;9.964;2023-02-19T21:58:42;5.40;99.90
9965;DHT22;5023;53.554;9.964;2023-02-19T22:03:44;5.50;99.90
9965;DHT22;5023;53.554;9.964;2023-02-19T22:08:46;5.50;99.90
9965;DHT22;5023;53.554;9.964;2023-02-19T22:13:52;5.50;99.90
9965;DHT22;5023;53.554;9.964;2023-02-19T22:18:56;5.60;99.90
9965;DHT22;5023;53.554;9.964;2023-02-19T22:23:59;5.60;99.90
9965;DHT22;5023;53.554;9.964;2023-02-19T22:29:02;5.50;99.90
9965;DHT22;5023;53.554;9.964;2023-02-19T22:34:06;5.50;99.90
9965;DHT22;5023;53.554;9.964;2023-02-19T22:39:17;5.50;99.90
9965;DHT22;5023;53.554;9.964;2023-02-19T22:44:21;5.50;99.90
9965;DHT22;5023;53.554;9.964;2023-02-19T22:49:23;5.50;99.90
9965;DHT22;5023;53.554;9.964;2023-02-19T22:54:25;5.50;99.90
9965;DHT22;5023;53.554;9.964;2023-02-19T22:59:30;5.50;99.90
9965;DHT22;5023;53.554;9.964;2023-02-19T23:04:32;5.40;99.90
9965;DHT22;5023;53.554;9.964;2023-02-19T23:09:34;5.50;99.90
9965;DHT22;5023;53.554;9.964;2023-02-19T23:14:38;5.60;99.90
9965;DHT22;5023;53.554;9.964;2023-02-19T23:19:40;5.60;99.90
9965;DHT22;5023;53.554;9.964;2023-02-19T23:24:42;5.50;99.90
9965;DHT22;5023;53.554;9.964;2023-02-19T23:29:46;5.50;99.90
9965;DHT22;5023;53.554;9.964;2023-02-19T23:34:49;5.50;99.90
9965;DHT22;5023;53.554;9.964;2023-02-19T23:39:51;5.60;99.90
9965;DHT22;5023;53.554;9.964;2023-02-19T23:44:55;5.60;99.90
9965;DHT22;5023;53.554;9.964;2023-02-19T23:49:58;5.60;99.90
9965;DHT22;5023;53.554;9.964;2023-02-19T23:55:00;5.70;99.90
